Time;durP1;ratioP1;P1;durP2;ratioP2;P2;SDS_P1;SDS_P2;PMS_P1;PMS_P2;Temp;Humidity;BMP_temperature;BMP_pressure;BME280_temperature;BME280_humidity;BME280_pressure;Samples;Min_cycle;Max_cycle;Signal;HPM_P1;HPM_P2
2022/06/21 00:00:51;;;;;;;10.10;6.53;;;11.10;7.60;;;;;;5071700;28;20480;-81
2022/06/21 00:03:23;;;;;;;10.77;8.40;;;11.20;10.70;;;;;;5072646;28;20416;-81
2022/06/21 00:05:52;;;;;;;17.90;7.93;;;11.00;14.50;;;;;;5069879;28;20476;-81
2022/06/21 00:08:21;;;;;;;12.67;9.07;;;11.00;14.10;;;;;;5073090;28;20492;-81
2022/06/21 00:10:48;;;;;;;11.30;7.90;;;11.20;14.20;;;;;;5072947;28;20417;-81
2022/06/21 00:13:20;;;;;;;10.03;7.80;;;10.90;12.30;;;;;;5073385;28;20512;-81
2022/06/21 00:15:47;;;;;;;15.10;8.00;;;11.10;13.30;;;;;;5072835;28;20516;-80
2022/06/21 00:18:16;;;;;;;11.40;8.30;;;11.00;12.30;;;;;;5073031;28;20417;-81
2022/06/21 00:20:42;;;;;;;10.70;7.40;;;10.80;14.60;;;;;;5064007;28;20484;-81
2022/06/21 00:23:18;;;;;;;9.67;6.90;;;10.80;12.80;;;;;;5066706;28;20417;-80
2022/06/21 00:25:46;;;;;;;15.83;7.87;;;10.80;14.00;;;;;;5072451;28;20493;-80
2022/06/21 00:28:13;;;;;;;11.23;8.30;;;10.80;13.90;;;;;;5059354;28;20501;-80
2022/06/21 00:30:39;;;;;;;12.30;8.33;;;11.70;16.30;;;;;;5072607;28;20413;-80
2022/06/21 00:33:10;;;;;;;9.43;7.93;;;10.80;15.30;;;;;;5059340;28;20477;-80
2022/06/21 00:35:36;;;;;;;12.80;8.60;;;10.70;18.40;;;;;;5072936;28;20496;-80
2022/06/21 00:38:02;;;;;;;10.07;8.50;;;11.20;19.70;;;;;;5073019;28;20467;-80
2022/06/21 00:40:33;;;;;;;10.67;8.70;;;11.60;23.20;;;;;;5072601;28;20213;-80
2022/06/21 00:43:03;;;;;;;9.40;8.03;;;10.70;23.60;;;;;;5073041;28;20554;-80
2022/06/21 00:45:38;;;;;;;12.67;9.73;;;10.60;23.80;;;;;;5072749;28;20414;-80
2022/06/21 00:48:25;;;;;;;10.90;8.50;;;10.50;28.80;;;;;;5071329;28;20434;-80
2022/06/21 00:50:59;;;;;;;14.77;9.00;;;10.40;30.00;;;;;;5071314;28;20432;-80
2022/06/21 00:53:31;;;;;;;9.33;7.07;;;10.50;29.00;;;;;;5073018;28;20437;-80
2022/06/21 00:55:59;;;;;;;9.87;6.97;;;10.40;25.70;;;;;;5071216;28;21788;-80
2022/06/21 00:58:26;;;;;;;7.83;7.03;;;10.40;24.10;;;;;;5072572;28;20428;-80
2022/06/21 01:00:56;;;;;;;10.27;8.13;;;10.60;21.90;;;;;;5072325;28;20465;-80
2022/06/21 01:03:26;;;;;;;9.43;7.53;;;10.60;19.70;;;;;;5072469;28;20413;-80
2022/06/21 01:05:53;;;;;;;13.30;7.90;;;10.30;18.60;;;;;;5072306;28;20458;-80
2022/06/21 01:08:28;;;;;;;11.33;8.10;;;10.30;19.00;;;;;;5072769;28;20429;-80
2022/06/21 01:10:58;;;;;;;7.80;7.00;;;10.30;20.30;;;;;;5072331;28;20466;-80
2022/06/21 01:13:29;;;;;;;11.23;7.80;;;10.20;18.90;;;;;;5061197;28;20461;-80
2022/06/21 01:15:56;;;;;;;13.50;7.50;;;10.20;19.10;;;;;;5062426;28;20475;-80
2022/06/21 01:18:24;;;;;;;9.43;7.20;;;10.10;21.00;;;;;;5076232;28;20409;-80
2022/06/21 01:20:58;;;;;;;10.57;8.60;;;10.10;21.00;;;;;;5074653;28;20460;-80
2022/06/21 01:23:38;;;;;;;10.30;8.20;;;10.10;21.80;;;;;;5076506;28;20415;-80
2022/06/21 01:26:31;;;;;;;12.43;7.50;;;10.00;26.00;;;;;;5075926;28;20496;-80
2022/06/21 01:29:00;;;;;;;10.23;6.87;;;10.00;27.00;;;;;;5064142;28;20416;-80
2022/06/21 01:31:26;;;;;;;8.30;6.90;;;10.00;28.70;;;;;;5075488;28;20411;-80
2022/06/21 01:33:52;;;;;;;11.70;7.50;;;10.00;29.20;;;;;;5064547;28;20409;-80
2022/06/21 01:36:22;;;;;;;9.30;8.30;;;11.40;32.10;;;;;;5075926;28;20419;-80
2022/06/21 01:39:13;;;;;;;10.47;8.20;;;11.10;26.90;;;;;;5076407;28;20183;-80
2022/06/21 01:41:41;;;;;;;10.37;8.47;;;9.90;27.00;;;;;;5066331;28;20422;-81
2022/06/21 01:44:15;;;;;;;8.50;7.70;;;9.90;31.70;;;;;;5068734;28;20409;-81
2022/06/21 01:46:40;;;;;;;10.73;8.27;;;9.90;34.70;;;;;;5072146;28;20458;-80
2022/06/21 01:49:10;;;;;;;10.30;8.27;;;9.80;42.60;;;;;;5075379;28;20813;-81
2022/06/21 01:51:52;;;;;;;8.97;8.00;;;9.80;36.10;;;;;;5075513;28;20183;-80
2022/06/21 01:54:21;;;;;;;11.20;8.63;;;9.80;42.70;;;;;;5074360;28;20902;-80
2022/06/21 01:56:48;;;;;;;12.07;8.50;;;9.80;42.70;;;;;;5074039;28;20417;-80
2022/06/21 01:59:18;;;;;;;11.73;8.60;;;10.00;42.10;;;;;;5075804;28;20417;-80
2022/06/21 02:02:01;;;;;;;8.77;7.87;;;9.80;42.70;;;;;;5075360;28;20512;-80
2022/06/21 02:04:37;;;;;;;11.70;9.30;;;9.80;42.90;;;;;;5075486;28;20435;-80
2022/06/21 02:07:07;;;;;;;10.90;8.20;;;9.70;42.60;;;;;;5075545;28;20417;-80
2022/06/21 02:09:46;;;;;;;11.53;8.43;;;9.70;42.60;;;;;;5069303;28;20464;-80
2022/06/21 02:12:13;;;;;;;14.47;8.30;;;9.70;42.60;;;;;;5075309;28;20485;-80
2022/06/21 02:14:43;;;;;;;13.80;8.63;;;9.80;42.80;;;;;;5075444;28;20421;-80
2022/06/21 02:17:32;;;;;;;10.60;8.43;;;9.60;46.60;;;;;;5074840;28;20391;-80
2022/06/21 02:20:06;;;;;;;13.10;8.50;;;9.50;42.40;;;;;;5073668;28;20495;-81
2022/06/21 02:22:33;;;;;;;13.40;8.77;;;9.60;42.50;;;;;;5075662;28;20754;-80
2022/06/21 02:25:00;;;;;;;8.07;7.37;;;9.60;42.60;;;;;;5074926;28;20442;-80
2022/06/21 02:27:31;;;;;;;13.80;8.33;;;9.60;42.70;;;;;;5073851;28;20466;-81
2022/06/21 02:30:00;;;;;;;10.47;7.80;;;9.60;42.50;;;;;;5074955;28;20757;-80
2022/06/21 02:32:30;;;;;;;8.47;7.50;;;9.70;42.60;;;;;;5066134;28;20429;-80
2022/06/21 02:35:17;;;;;;;9.80;8.00;;;9.50;42.60;;;;;;5072224;28;20457;-80
2022/06/21 02:37:45;;;;;;;9.10;7.70;;;9.50;42.40;;;;;;5075060;28;20413;-81
2022/06/21 02:40:18;;;;;;;8.27;6.63;;;9.90;42.80;;;;;;5074478;28;20870;-80
2022/06/21 02:42:46;;;;;;;8.90;8.00;;;11.00;42.80;;;;;;5074713;28;20417;-80
2022/06/21 02:45:24;;;;;;;9.27;7.00;;;9.40;42.30;;;;;;5074668;28;20798;-80
2022/06/21 02:47:53;;;;;;;11.03;7.67;;;9.40;42.30;;;;;;5074636;28;20408;-80
2022/06/21 02:50:25;;;;;;;9.63;7.90;;;9.40;42.30;;;;;;5074700;28;20417;-80
2022/06/21 02:52:53;;;;;;;8.37;7.10;;;9.40;42.50;;;;;;5074999;28;20409;-80
2022/06/21 02:55:21;;;;;;;9.20;6.33;;;9.40;42.30;;;;;;5063080;28;20892;-81
2022/06/21 02:57:56;;;;;;;7.80;6.87;;;9.40;42.30;;;;;;5072839;28;20912;-81
2022/06/21 03:00:23;;;;;;;9.83;7.50;;;9.40;42.40;;;;;;5074251;28;20465;-81
2022/06/21 03:02:49;;;;;;;9.60;8.43;;;9.30;42.40;;;;;;5073110;28;20810;-81
2022/06/21 03:05:19;;;;;;;10.17;7.43;;;9.30;42.30;;;;;;5074223;28;20413;-81
2022/06/21 03:07:53;;;;;;;10.40;8.00;;;9.30;42.20;;;;;;5061578;28;20409;-80
2022/06/21 03:10:23;;;;;;;10.40;8.40;;;9.30;42.30;;;;;;5074136;28;20420;-80
2022/06/21 03:12:54;;;;;;;9.60;8.07;;;9.80;42.90;;;;;;5074386;28;20970;-81
2022/06/21 03:15:20;;;;;;;10.37;7.90;;;9.30;42.30;;;;;;5074142;28;20414;-81
2022/06/21 03:17:49;;;;;;;10.33;7.93;;;9.30;42.30;;;;;;5073997;28;20417;-81
2022/06/21 03:20:18;;;;;;;10.60;8.37;;;10.30;42.10;;;;;;5073612;28;20714;-81
2022/06/21 03:22:45;;;;;;;11.17;8.10;;;9.30;42.20;;;;;;5074315;28;20405;-80
2022/06/21 03:25:31;;;;;;;8.70;7.77;;;10.80;42.60;;;;;;5073778;28;20474;-80
2022/06/21 03:27:59;;;;;;;9.33;8.13;;;9.30;42.30;;;;;;5073720;28;20412;-80
2022/06/21 03:30:36;;;;;;;9.30;8.33;;;9.40;42.30;;;;;;5073515;28;20417;-80
2022/06/21 03:33:03;;;;;;;9.87;8.03;;;9.30;42.30;;;;;;5059711;28;20421;-80
2022/06/21 03:35:33;;;;;;;9.20;7.70;;;9.30;42.30;;;;;;5073728;28;20505;-80
2022/06/21 03:37:59;;;;;;;10.83;8.50;;;9.30;42.30;;;;;;5060270;28;20410;-80
2022/06/21 03:43:23;;;;;;;9.87;8.07;;;9.30;42.40;;;;;;5073565;28;20932;-80
2022/06/21 03:45:50;;;;;;;9.20;7.60;;;9.30;42.30;;;;;;5073599;28;20473;-80
2022/06/21 03:48:27;;;;;;;8.27;7.47;;;9.30;42.30;;;;;;5059858;28;20412;-80
2022/06/21 03:51:11;;;;;;;10.47;8.30;;;9.30;42.30;;;;;;5073598;28;20417;-80
2022/06/21 03:54:00;;;;;;;9.73;7.57;;;9.40;42.30;;;;;;5073821;28;20417;-81
2022/06/21 03:56:33;;;;;;;9.20;8.07;;;9.30;42.30;;;;;;5065754;28;20449;-81
2022/06/21 03:59:22;;;;;;;10.13;8.53;;;9.40;42.30;;;;;;5073262;28;20421;-81
2022/06/21 04:02:00;;;;;;;12.80;8.00;;;9.40;42.30;;;;;;5073143;28;20433;-81
2022/06/21 04:04:38;;;;;;;7.90;6.93;;;9.50;42.40;;;;;;5072229;28;20829;-81
2022/06/21 04:07:04;;;;;;;7.20;6.50;;;9.50;42.40;;;;;;5073200;28;20453;-81
2022/06/21 04:09:47;;;;;;;8.53;7.60;;;9.60;42.50;;;;;;5073912;28;20442;-84
2022/06/21 04:12:30;;;;;;;10.33;7.63;;;9.60;42.50;;;;;;5073849;28;20183;-85
2022/06/21 04:15:12;;;;;;;13.97;7.50;;;9.70;42.60;;;;;;5074022;28;20492;-84
2022/06/21 04:18:04;;;;;;;10.03;7.50;;;9.70;42.60;;;;;;5064437;28;20537;-85
2022/06/21 04:20:38;;;;;;;7.87;6.37;;;9.70;42.60;;;;;;5072265;28;20456;-85
2022/06/21 04:23:17;;;;;;;15.13;7.87;;;9.80;42.70;;;;;;5072971;28;20409;-84
2022/06/21 04:26:13;;;;;;;9.60;8.00;;;9.90;42.80;;;;;;5072704;28;20488;-83
2022/06/21 04:28:41;;;;;;;9.70;7.40;;;9.90;42.90;;;;;;5053468;28;20417;-83
2022/06/21 04:31:24;;;;;;;8.40;6.87;;;10.00;42.10;;;;;;5071951;28;20417;-83
2022/06/21 04:34:09;;;;;;;8.27;6.87;;;10.10;48.30;;;;;;5061483;28;20412;-83
2022/06/21 04:37:01;;;;;;;7.60;6.80;;;10.20;42.00;;;;;;5072991;28;20437;-83
2022/06/21 04:39:36;;;;;;;10.90;6.93;;;10.30;42.10;;;;;;5072255;28;20494;-84
2022/06/21 04:42:33;;;;;;;10.67;7.17;;;10.40;42.20;;;;;;5081448;28;20455;-84
2022/06/21 04:45:17;;;;;;;12.07;7.90;;;10.50;42.30;;;;;;5058846;28;20417;-84
2022/06/21 04:48:10;;;;;;;9.17;7.70;;;10.70;42.50;;;;;;5072031;28;20409;-84
2022/06/21 04:50:44;;;;;;;14.07;7.00;;;10.70;42.50;;;;;;5075949;28;20405;-84
2022/06/21 04:53:28;;;;;;;12.17;8.10;;;10.90;43.50;;;;;;5077518;28;20444;-83
2022/06/21 04:56:35;;;;;;;10.20;8.07;;;11.00;45.00;;;;;;5089409;28;20435;-83
2022/06/21 04:59:04;;;;;;;14.97;9.40;;;11.10;59.50;;;;;;5054803;28;20453;-83
2022/06/21 05:01:30;;;;;;;11.07;8.23;;;11.20;63.00;;;;;;5054647;28;20469;-83
2022/06/21 05:04:00;;;;;;;14.87;9.87;;;11.40;64.40;;;;;;5037682;28;20418;-83
2022/06/21 05:06:26;;;;;;;11.53;9.20;;;11.50;65.20;;;;;;5054514;28;20220;-83
2022/06/21 05:08:52;;;;;;;11.67;8.97;;;11.70;63.10;;;;;;5055185;28;20501;-83
2022/06/21 05:11:20;;;;;;;17.30;9.90;;;11.80;63.20;;;;;;5037456;28;20175;-83
2022/06/21 05:13:50;;;;;;;11.07;8.90;;;11.90;59.20;;;;;;5054604;28;20440;-82
2022/06/21 05:16:21;;;;;;;13.10;8.87;;;12.20;56.60;;;;;;5054530;28;20414;-80
2022/06/21 05:19:00;;;;;;;9.87;8.17;;;12.10;54.00;;;;;;5054204;28;20392;-80
2022/06/21 05:21:35;;;;;;;15.70;10.10;;;12.30;43.90;;;;;;5036713;28;20552;-80
2022/06/21 05:24:03;;;;;;;13.70;9.10;;;12.50;69.30;;;;;;5054203;28;20418;-80
2022/06/21 05:26:43;;;;;;;13.27;9.03;;;12.80;59.60;;;;;;5053480;28;20421;-77
2022/06/21 05:29:22;;;;;;;10.87;8.80;;;12.80;44.30;;;;;;5050563;28;20443;-84
2022/06/21 05:31:54;;;;;;;11.60;8.20;;;12.90;44.50;;;;;;5051147;28;20417;-82
2022/06/21 05:34:25;;;;;;;13.40;9.00;;;13.10;44.70;;;;;;5054123;28;20889;-83
2022/06/21 05:37:04;;;;;;;9.87;8.67;;;13.30;44.90;;;;;;5070140;28;20656;-83
2022/06/21 05:39:36;;;;;;;9.80;7.97;;;13.30;37.10;;;;;;5075052;28;20440;-83
2022/06/21 05:42:04;;;;;;;16.13;8.70;;;13.50;28.20;;;;;;5075729;28;20438;-83
2022/06/21 05:44:48;;;;;;;8.97;8.17;;;13.60;17.00;;;;;;5072847;28;21006;-83
2022/06/21 05:47:30;;;;;;;15.03;8.90;;;13.70;11.80;;;;;;5087336;28;20946;-83
2022/06/21 05:49:57;;;;;;;11.50;8.93;;;13.90;6.70;;;;;;5062837;28;20778;-83
2022/06/21 05:52:28;;;;;;;10.70;8.50;;;14.00;2.90;;;;;;5072869;28;20421;-83
2022/06/21 05:55:13;;;;;;;10.07;7.27;;;14.10;1.00;;;;;;5076025;28;20409;-82
2022/06/21 05:57:46;;;;;;;11.43;8.60;;;14.30;1.00;;;;;;5075801;28;20549;-83
2022/06/21 06:00:44;;;;;;;13.63;7.80;;;14.40;1.00;;;;;;5075265;28;20981;-82
2022/06/21 06:03:36;;;;;;;10.97;7.63;;;14.60;1.00;;;;;;5074307;28;20417;-82
2022/06/21 06:06:05;;;;;;;9.70;7.10;;;14.70;1.00;;;;;;5074941;28;20413;-84
2022/06/21 06:08:38;;;;;;;25.03;8.17;;;14.90;1.00;;;;;;5071281;28;20389;-84
2022/06/21 06:11:10;;;;;;;13.60;6.60;;;15.10;1.00;;;;;;5083176;28;20400;-84
2022/06/21 06:13:40;;;;;;;13.40;7.60;;;15.20;1.00;;;;;;5074487;28;20424;-85
2022/06/21 06:16:28;;;;;;;10.37;6.53;;;15.30;1.00;;;;;;5074103;28;20417;-85
2022/06/21 06:19:16;;;;;;;17.17;7.33;;;15.40;1.00;;;;;;5086853;28;20408;-82
2022/06/21 06:22:06;;;;;;;8.80;6.47;;;15.50;1.00;;;;;;5086605;28;20453;-83
2022/06/21 06:24:42;;;;;;;8.30;6.20;;;15.60;1.00;;;;;;5075420;28;20493;-84
2022/06/21 06:27:38;;;;;;;8.07;5.60;;;15.60;1.00;;;;;;5075100;28;20387;-83
2022/06/21 06:30:06;;;;;;;11.17;7.40;;;15.70;1.00;;;;;;5070896;28;20394;-84
2022/06/21 06:33:12;;;;;;;11.73;6.07;;;15.80;1.00;;;;;;5075196;28;20409;-83
2022/06/21 06:35:38;;;;;;;14.57;7.40;;;16.00;1.00;;;;;;5073812;28;20429;-84
2022/06/21 06:38:13;;;;;;;14.87;7.20;;;16.10;1.00;;;;;;5060671;28;20932;-83
2022/06/21 06:40:48;;;;;;;15.63;6.73;;;16.20;1.00;;;;;;5074129;28;20289;-83
2022/06/21 06:43:24;;;;;;;11.00;6.03;;;16.30;1.00;;;;;;5074930;28;20398;-84
2022/06/21 06:45:51;;;;;;;10.60;6.03;;;16.40;1.00;;;;;;5077268;28;20412;-84
2022/06/21 06:48:24;;;;;;;7.10;5.53;;;16.60;1.00;;;;;;5084712;28;20940;-84
2022/06/21 06:50:55;;;;;;;8.97;5.97;;;16.70;1.00;;;;;;5070587;28;20397;-83
2022/06/21 06:53:31;;;;;;;15.33;6.43;;;16.90;1.00;;;;;;5065524;28;20434;-85
2022/06/21 06:56:03;;;;;;;10.60;5.80;;;17.00;1.00;;;;;;5075161;28;20405;-83
2022/06/21 06:58:40;;;;;;;9.27;5.50;;;17.20;1.00;;;;;;5074129;28;20421;-83
2022/06/21 07:01:13;;;;;;;7.30;6.00;;;17.30;1.00;;;;;;5085943;28;20461;-84
2022/06/21 07:03:44;;;;;;;14.83;6.93;;;17.50;1.00;;;;;;5073360;28;20396;-84
2022/06/21 07:06:36;;;;;;;8.17;5.87;;;17.70;1.00;;;;;;5077785;28;20440;-83
2022/06/21 07:09:19;;;;;;;7.93;5.77;;;17.80;1.00;;;;;;5072981;28;20414;-83
2022/06/21 07:12:07;;;;;;;12.90;5.83;;;18.00;1.00;;;;;;5074654;28;20398;-83
2022/06/21 07:14:34;;;;;;;9.17;5.13;;;18.10;1.00;;;;;;5073503;28;20442;-80
2022/06/21 07:17:18;;;;;;;10.43;5.50;;;18.20;1.00;;;;;;5072730;28;20427;-85
2022/06/21 07:19:44;;;;;;;7.20;4.70;;;18.40;1.00;;;;;;5072513;28;20469;-83
2022/06/21 07:22:16;;;;;;;10.63;5.70;;;18.50;1.00;;;;;;5073005;28;20494;-85
2022/06/21 07:25:00;;;;;;;10.73;5.27;;;18.70;1.00;;;;;;5073110;28;20438;-82
2022/06/21 07:27:29;;;;;;;14.03;5.60;;;18.80;1.00;;;;;;5064632;28;20426;-83
2022/06/21 07:30:02;;;;;;;16.03;6.30;;;19.00;1.00;;;;;;5059222;28;20440;-84
2022/06/21 07:32:35;;;;;;;8.43;5.07;;;19.10;1.00;;;;;;5057397;28;20953;-84
2022/06/21 07:35:35;;;;;;;6.27;5.17;;;19.10;1.00;;;;;;5072510;28;20431;-76
2022/06/21 07:38:13;;;;;;;6.90;5.63;;;19.20;1.00;;;;;;5076365;28;20393;-76
2022/06/21 07:40:50;;;;;;;16.13;5.37;;;19.30;1.00;;;;;;5073467;28;20938;-75
2022/06/21 07:43:36;;;;;;;14.60;5.37;;;19.40;1.00;;;;;;5072131;28;20443;-75
2022/06/21 07:46:05;;;;;;;7.43;6.07;;;19.50;1.00;;;;;;5073311;28;20386;-75
2022/06/21 07:48:48;;;;;;;11.07;5.20;;;19.50;1.00;;;;;;5073280;28;20411;-75
2022/06/21 07:51:21;;;;;;;5.97;5.17;;;19.70;1.00;;;;;;5061513;28;20412;-74
2022/06/21 07:53:54;;;;;;;14.87;5.80;;;19.90;1.00;;;;;;5086730;28;20407;-75
2022/06/21 07:56:31;;;;;;;7.33;5.10;;;19.90;1.00;;;;;;5073644;28;20515;-76
2022/06/21 07:59:23;;;;;;;7.87;4.53;;;20.10;1.00;;;;;;5073494;28;20413;-86
2022/06/21 08:08:09;;;;;;;13.50;5.17;;;20.50;1.00;;;;;;4991500;28;20475;-86
2022/06/21 08:11:04;;;;;;;7.80;4.70;;;20.60;1.00;;;;;;4972944;28;20413;-84
2022/06/21 08:13:30;;;;;;;8.07;4.73;;;20.60;1.00;;;;;;4970980;28;20458;-84
2022/06/21 08:16:10;;;;;;;8.73;4.10;;;20.80;1.00;;;;;;4967814;28;20429;-84
2022/06/21 08:19:19;;;;;;;9.90;5.27;;;20.90;1.00;;;;;;4972365;28;20559;-84
2022/06/21 08:21:56;;;;;;;9.57;4.93;;;21.00;1.00;;;;;;4952588;28;20475;-83
2022/06/21 08:24:42;;;;;;;7.83;3.77;;;21.10;1.00;;;;;;4952395;28;20432;-84
2022/06/21 08:27:35;;;;;;;7.80;4.63;;;21.20;1.00;;;;;;4944163;29;20447;-86
2022/06/21 08:30:16;;;;;;;13.20;4.83;;;21.30;1.00;;;;;;4953206;29;20428;-86
2022/06/21 08:32:53;;;;;;;5.10;3.90;;;21.50;1.00;;;;;;4961810;28;20415;-86
2022/06/21 08:35:44;;;;;;;6.40;3.57;;;21.50;1.00;;;;;;4944652;29;20435;-86
2022/06/21 08:38:24;;;;;;;5.67;3.60;;;21.70;1.00;;;;;;4941771;29;20479;-86
2022/06/21 08:40:58;;;;;;;7.00;4.00;;;21.90;1.00;;;;;;4974843;28;20470;-85
2022/06/21 08:43:55;;;;;;;8.43;4.13;;;21.90;1.00;;;;;;4991624;28;20439;-84
2022/06/21 08:46:39;;;;;;;7.13;4.10;;;22.00;1.00;;;;;;4991498;28;20422;-84
2022/06/21 08:49:05;;;;;;;8.23;3.73;;;22.10;1.00;;;;;;5008312;28;20473;-84
2022/06/21 08:52:08;;;;;;;4.57;3.40;;;22.30;1.00;;;;;;5009797;28;20942;-84
2022/06/21 08:54:37;;;;;;;6.60;3.43;;;22.40;1.00;;;;;;5057793;28;20190;-84
2022/06/21 08:57:18;;;;;;;8.80;3.07;;;22.40;1.00;;;;;;5069335;28;20515;-84
2022/06/21 09:00:08;;;;;;;4.53;3.93;;;22.40;1.00;;;;;;5066929;28;20410;-84
2022/06/21 09:03:07;;;;;;;9.77;3.20;;;22.70;1.00;;;;;;5072663;28;20461;-83
2022/06/21 09:06:04;;;;;;;6.03;3.57;;;22.80;1.00;;;;;;5070844;28;20450;-85
2022/06/21 09:08:57;;;;;;;13.07;3.00;;;22.90;1.00;;;;;;5068874;28;20425;-85
2022/06/21 09:11:41;;;;;;;30.33;3.70;;;23.00;1.00;;;;;;5067481;28;20414;-85
2022/06/21 09:14:49;;;;;;;7.73;3.30;;;23.10;1.00;;;;;;5072920;28;20512;-85
2022/06/21 09:17:57;;;;;;;9.00;3.10;;;23.20;1.00;;;;;;5072842;28;20410;-85
2022/06/21 09:20:42;;;;;;;3.77;2.67;;;23.20;1.00;;;;;;5024030;28;20523;-84
2022/06/21 09:23:45;;;;;;;5.47;2.73;;;23.30;1.00;;;;;;5030330;28;20917;-84
2022/06/21 09:26:18;;;;;;;3.53;3.17;;;23.30;1.00;;;;;;4990937;28;20762;-84
2022/06/21 09:28:59;;;;;;;3.80;3.00;;;23.40;1.00;;;;;;4991193;28;20910;-84
2022/06/21 09:31:53;;;;;;;7.30;2.70;;;23.50;1.00;;;;;;4990691;28;20430;-84
2022/06/21 09:34:27;;;;;;;5.57;3.13;;;23.70;1.00;;;;;;4991209;28;20902;-85
2022/06/21 09:37:31;;;;;;;3.30;2.87;;;24.00;1.00;;;;;;4993731;28;20434;-84
2022/06/21 09:40:17;;;;;;;4.20;2.60;;;24.00;1.00;;;;;;4978308;28;20462;-85
2022/06/21 09:43:11;;;;;;;4.13;2.57;;;24.10;1.00;;;;;;4978752;28;20542;-84
2022/06/21 09:46:12;;;;;;;7.30;2.93;;;24.30;1.00;;;;;;4974185;28;20427;-85
2022/06/21 09:49:05;;;;;;;3.20;2.30;;;24.50;1.00;;;;;;4994366;28;20439;-84
2022/06/21 09:51:56;;;;;;;7.67;3.33;;;24.80;1.00;;;;;;4978087;28;20494;-84
2022/06/21 09:54:39;;;;;;;3.93;2.40;;;25.10;1.00;;;;;;4978057;28;20470;-84
2022/06/21 09:57:19;;;;;;;3.50;2.60;;;25.40;1.00;;;;;;4976207;28;20419;-84
2022/06/21 10:00:03;;;;;;;3.97;3.07;;;25.60;1.00;;;;;;4974810;28;20529;-83
2022/06/21 10:03:09;;;;;;;4.23;2.70;;;25.70;1.00;;;;;;4980058;28;20912;-84
2022/06/21 10:05:42;;;;;;;3.30;2.77;;;25.90;1.00;;;;;;5010080;28;20429;-83
2022/06/21 10:08:10;;;;;;;5.60;3.33;;;26.00;1.00;;;;;;5013588;28;20475;-80
2022/06/21 10:10:58;;;;;;;5.27;2.80;;;26.20;1.00;;;;;;5025698;28;20415;-83
2022/06/21 10:14:01;;;;;;;4.27;2.90;;;26.30;1.00;;;;;;5069171;28;20434;-83
2022/06/21 10:16:39;;;;;;;4.37;2.40;;;26.40;1.00;;;;;;5071525;28;20455;-83
2022/06/21 10:19:17;;;;;;;9.97;2.70;;;26.50;1.00;;;;;;5075350;28;20419;-83
2022/06/21 10:22:01;;;;;;;4.70;2.53;;;26.60;1.00;;;;;;5074910;28;20446;-83
2022/06/21 10:24:45;;;;;;;6.80;2.90;;;26.50;1.00;;;;;;5075255;28;20411;-83
2022/06/21 10:27:16;;;;;;;5.37;2.37;;;26.70;1.00;;;;;;5075475;28;20802;-83
2022/06/21 10:30:16;;;;;;;5.73;2.00;;;26.70;1.00;;;;;;5073569;28;20442;-83
2022/06/21 10:32:53;;;;;;;4.73;2.23;;;26.80;1.00;;;;;;5075013;28;20475;-83
2022/06/21 10:35:25;;;;;;;7.80;2.23;;;27.00;1.00;;;;;;5075004;28;20407;-83
2022/06/21 10:38:01;;;;;;;2.10;1.60;;;27.40;1.00;;;;;;5075185;28;20398;-84
2022/06/21 10:41:04;;;;;;;3.23;1.70;;;27.60;1.00;;;;;;5074729;28;20453;-83
2022/06/21 10:44:15;;;;;;;2.90;2.00;;;27.90;1.00;;;;;;5087003;28;20450;-83
2022/06/21 10:46:49;;;;;;;3.97;1.67;;;28.20;1.00;;;;;;5065851;28;20433;-84
2022/06/21 10:49:20;;;;;;;1.57;1.47;;;28.80;1.00;;;;;;5074115;28;20502;-83
2022/06/21 10:52:03;;;;;;;2.90;1.77;;;28.80;1.00;;;;;;5073437;28;21001;-83
2022/06/21 10:55:09;;;;;;;6.20;1.53;;;28.70;1.00;;;;;;5074415;28;20414;-83
2022/06/21 10:57:41;;;;;;;1.80;1.70;;;28.60;1.00;;;;;;5061792;28;20446;-83
2022/06/21 11:03:30;;;;;;;3.17;1.60;;;28.80;1.00;;;;;;5074508;28;20419;-83
2022/06/21 11:06:23;;;;;;;5.73;1.83;;;29.00;1.00;;;;;;5073968;28;20926;-83
2022/06/21 11:09:03;;;;;;;1.87;1.50;;;29.30;1.00;;;;;;5070926;28;20436;-83
2022/06/21 11:15:07;;;;;;;1.43;1.33;;;29.30;1.00;;;;;;5032225;28;20862;-82
2022/06/21 11:17:35;;;;;;;6.97;2.10;;;29.00;1.00;;;;;;5031781;28;20511;-82
2022/06/21 11:20:22;;;;;;;3.40;1.57;;;28.90;1.00;;;;;;5031464;28;20461;-83
2022/06/21 11:23:14;;;;;;;9.23;1.93;;;28.60;1.00;;;;;;5031666;28;20418;-82
2022/06/21 11:25:45;;;;;;;2.50;1.50;;;28.70;1.00;;;;;;5028341;28;20418;-77
2022/06/21 11:28:34;;;;;;;2.07;1.40;;;28.90;1.00;;;;;;5032118;28;20457;-83
2022/06/21 11:31:23;;;;;;;2.80;1.60;;;28.90;1.00;;;;;;5031459;28;20437;-83
2022/06/21 11:34:01;;;;;;;6.67;1.70;;;28.70;1.00;;;;;;5026368;28;20821;-83
2022/06/21 11:36:51;;;;;;;2.70;1.47;;;28.90;1.00;;;;;;5031432;28;20433;-84
2022/06/21 11:39:57;;;;;;;3.60;1.53;;;29.30;1.00;;;;;;5011938;28;20439;-83
2022/06/21 11:42:32;;;;;;;3.13;1.63;;;29.60;1.00;;;;;;5026910;28;20535;-81
2022/06/21 11:45:14;;;;;;;3.10;1.50;;;29.90;1.00;;;;;;5031081;28;20421;-82
2022/06/21 11:48:21;;;;;;;2.30;1.83;;;30.20;1.00;;;;;;5031165;28;20931;-81
2022/06/21 11:50:55;;;;;;;2.40;1.80;;;30.20;1.00;;;;;;5052439;28;20558;-81
2022/06/21 11:53:27;;;;;;;3.33;1.90;;;30.30;1.00;;;;;;5073317;28;20407;-82
2022/06/21 11:55:59;;;;;;;3.83;1.83;;;30.00;1.00;;;;;;5071880;28;20420;-84
2022/06/21 11:58:34;;;;;;;3.13;1.80;;;30.40;1.00;;;;;;5076187;28;20415;-83
2022/06/21 12:01:36;;;;;;;4.27;1.47;;;30.70;1.00;;;;;;5059891;28;20476;-84
2022/06/21 12:04:43;;;;;;;13.63;1.70;;;30.80;1.00;;;;;;5030958;28;20999;-82
2022/06/21 12:07:21;;;;;;;3.20;1.53;;;31.10;1.00;;;;;;5044128;28;20511;-83
2022/06/21 12:09:55;;;;;;;5.53;1.70;;;31.40;1.00;;;;;;5030780;28;20437;-83
2022/06/21 12:12:28;;;;;;;4.93;1.73;;;31.70;1.00;;;;;;5014414;28;20521;-82
2022/06/21 12:15:09;;;;;;;3.10;1.80;;;31.80;1.00;;;;;;5014122;28;20865;-82
2022/06/21 12:17:46;;;;;;;2.77;1.70;;;31.80;1.00;;;;;;5030779;28;20426;-83
2022/06/21 12:20:20;;;;;;;1.50;1.40;;;31.70;1.00;;;;;;5030714;28;20455;-86
2022/06/21 12:22:51;;;;;;;2.00;1.43;;;31.60;1.00;;;;;;5014772;28;20427;-85
2022/06/21 12:25:19;;;;;;;2.70;1.57;;;31.10;1.00;;;;;;5014429;28;20470;-85
2022/06/21 12:27:45;;;;;;;4.93;1.50;;;30.90;1.00;;;;;;5016753;28;20518;-78
2022/06/21 12:30:21;;;;;;;2.97;1.40;;;30.90;1.00;;;;;;5041613;28;20875;-78
2022/06/21 12:32:48;;;;;;;2.40;1.60;;;31.00;1.00;;;;;;5030055;28;20242;-78
2022/06/21 12:35:17;;;;;;;3.67;1.43;;;31.30;1.00;;;;;;5024819;28;20942;-72
2022/06/21 12:37:49;;;;;;;3.37;1.70;;;31.20;1.00;;;;;;5029259;28;20488;-72
2022/06/21 12:40:35;;;;;;;4.20;1.43;;;31.00;1.00;;;;;;5046737;28;20955;-72
2022/06/21 12:43:26;;;;;;;3.40;1.70;;;30.80;1.00;;;;;;5064774;28;20455;-71
2022/06/21 12:46:18;;;;;;;5.17;1.80;;;30.40;1.00;;;;;;5072440;28;20832;-71
2022/06/21 12:48:47;;;;;;;2.50;1.70;;;30.50;1.00;;;;;;5072228;28;20415;-71
2022/06/21 12:51:33;;;;;;;3.20;2.00;;;30.50;1.00;;;;;;5065179;28;20421;-73
2022/06/21 12:54:32;;;;;;;1.93;1.67;;;30.20;1.00;;;;;;5070508;28;20420;-72
2022/06/21 12:57:48;;;;;;;3.00;2.13;;;30.10;1.00;;;;;;5069724;28;21000;-72
2022/06/21 13:00:39;;;;;;;4.10;1.90;;;30.00;1.00;;;;;;5025897;28;20552;-70
2022/06/21 13:03:19;;;;;;;6.23;2.43;;;30.10;1.00;;;;;;5030160;28;20927;-70
2022/06/21 13:05:53;;;;;;;7.87;1.73;;;30.00;1.00;;;;;;5029304;28;20420;-70
2022/06/21 13:08:50;;;;;;;7.27;1.90;;;30.10;1.00;;;;;;5030078;28;20421;-70
2022/06/21 13:11:31;;;;;;;4.10;1.97;;;30.20;1.00;;;;;;5031770;28;20428;-70
2022/06/21 13:14:18;;;;;;;4.23;2.00;;;30.30;1.00;;;;;;5034623;28;20500;-72
2022/06/21 13:16:53;;;;;;;3.93;2.07;;;30.40;1.00;;;;;;5033890;28;20418;-72
2022/06/21 13:20:06;;;;;;;4.30;2.10;;;30.60;1.00;;;;;;5034130;28;20415;-72
2022/06/21 13:22:55;;;;;;;5.13;2.50;;;30.50;1.00;;;;;;5007342;28;20552;-72
2022/06/21 13:25:48;;;;;;;1.93;1.83;;;30.20;1.00;;;;;;5001624;28;20938;-81
2022/06/21 13:28:46;;;;;;;3.87;1.90;;;30.10;1.00;;;;;;5001292;28;20435;-79
2022/06/21 13:31:33;;;;;;;2.63;2.00;;;30.20;1.00;;;;;;4997962;28;20475;-79
2022/06/21 13:34:04;;;;;;;2.80;1.90;;;30.70;1.00;;;;;;5008389;28;20419;-79
2022/06/21 13:36:49;;;;;;;2.97;1.73;;;31.00;1.00;;;;;;5029455;28;20844;-81
2022/06/21 13:39:35;;;;;;;2.13;1.60;;;31.30;1.00;;;;;;5050868;28;20418;-80
2022/06/21 13:45:01;;;;;;;5.20;1.70;;;31.40;1.00;;;;;;4994660;28;20487;-81
2022/06/21 13:47:47;;;;;;;2.60;1.73;;;31.30;1.00;;;;;;4994062;28;20511;-81
2022/06/21 13:50:27;;;;;;;11.13;1.60;;;31.30;1.00;;;;;;4936094;29;20427;-81
2022/06/21 13:53:00;;;;;;;4.30;1.50;;;31.20;1.00;;;;;;4936027;29;20866;-81
2022/06/21 13:55:35;;;;;;;2.43;1.70;;;31.30;1.00;;;;;;4920171;29;20442;-81
2022/06/21 13:58:32;;;;;;;1.60;1.50;;;31.40;1.00;;;;;;4920041;29;20789;-81
2022/06/21 14:01:39;;;;;;;2.80;1.53;;;31.40;1.00;;;;;;4955097;29;20883;-81
2022/06/21 14:04:23;;;;;;;2.40;1.80;;;31.60;1.00;;;;;;4954446;29;20949;-81
2022/06/21 14:07:04;;;;;;;2.40;1.70;;;31.70;1.00;;;;;;4954864;29;20431;-82
2022/06/21 14:10:01;;;;;;;1.60;1.50;;;32.10;1.00;;;;;;4955116;29;20415;-81